TimeCDT,TemperatureF,Dew PointF,Humidity,Sea Level PressureIn,VisibilityMPH,Wind Direction,Wind SpeedMPH,Gust SpeedMPH,PrecipitationIn,Events,Conditions,WindDirDegrees,DateUTC
12:15 AM,65.5,60.1,83,30.07,10.0,East,9.2,-,N/A,,Clear,100,2014-05-18 05:15:00
12:35 AM,64.8,59.9,84,30.07,10.0,East,8.1,-,N/A,,Clear,100,2014-05-18 05:35:00
12:55 AM,64.4,59.5,84,30.08,10.0,East,9.2,-,N/A,,Clear,100,2014-05-18 05:55:00
1:15 AM,63.7,59.2,85,30.09,10.0,East,6.9,-,N/A,,Clear,90,2014-05-18 06:15:00
1:35 AM,63.5,58.1,83,30.09,10.0,East,8.1,-,N/A,,Scattered Clouds,100,2014-05-18 06:35:00
1:55 AM,62.8,57.7,84,30.09,10.0,ESE,10.4,-,N/A,,Mostly Cloudy,110,2014-05-18 06:55:00
2:15 AM,62.2,57.2,84,30.10,10.0,ESE,12.7,16.1,N/A,,Mostly Cloudy,110,2014-05-18 07:15:00
2:35 AM,61.7,57.2,85,30.10,10.0,East,9.2,-,N/A,,Mostly Cloudy,100,2014-05-18 07:35:00
2:55 AM,61.9,57.2,85,30.10,10.0,ESE,10.4,17.3,N/A,,Overcast,110,2014-05-18 07:55:00
3:15 AM,61.3,57.2,86,30.11,10.0,ESE,8.1,-,N/A,,Overcast,110,2014-05-18 08:15:00
3:35 AM,61.7,57.2,85,30.11,10.0,ESE,10.4,-,N/A,,Overcast,110,2014-05-18 08:35:00
3:55 AM,61.7,57.0,85,30.11,10.0,East,8.1,-,N/A,,Overcast,100,2014-05-18 08:55:00
4:15 AM,61.7,57.2,85,30.11,10.0,ESE,8.1,-,N/A,,Overcast,110,2014-05-18 09:15:00
4:35 AM,61.2,57.2,87,30.11,10.0,East,9.2,-,N/A,,Overcast,100,2014-05-18 09:35:00
4:55 AM,60.8,57.2,88,30.11,10.0,East,8.1,-,N/A,,Overcast,100,2014-05-18 09:55:00
5:15 AM,61.2,57.6,88,30.11,10.0,ESE,6.9,-,N/A,,Overcast,110,2014-05-18 10:15:00
5:35 AM,61.5,57.9,88,30.10,10.0,ESE,8.1,-,N/A,,Overcast,110,2014-05-18 10:35:00
5:55 AM,61.2,57.7,88,30.10,10.0,East,5.8,-,N/A,,Overcast,100,2014-05-18 10:55:00
6:15 AM,60.4,57.6,90,30.11,10.0,ESE,6.9,-,N/A,,Scattered Clouds,110,2014-05-18 11:15:00
6:35 AM,60.4,57.6,90,30.11,10.0,ESE,4.6,-,N/A,,Mostly Cloudy,120,2014-05-18 11:35:00
6:55 AM,60.4,57.7,91,30.12,10.0,ESE,5.8,-,N/A,,Overcast,120,2014-05-18 11:55:00
7:15 AM,61.2,58.1,90,30.12,10.0,East,8.1,-,N/A,,Overcast,100,2014-05-18 12:15:00
7:35 AM,61.9,58.1,87,30.12,10.0,ESE,8.1,-,N/A,,Overcast,110,2014-05-18 12:35:00
7:55 AM,62.6,58.3,86,30.13,10.0,East,9.2,-,N/A,,Overcast,100,2014-05-18 12:55:00
8:15 AM,63.7,58.6,84,30.13,10.0,ESE,8.1,-,N/A,,Overcast,120,2014-05-18 13:15:00
8:35 AM,64.6,59.2,83,30.13,10.0,ESE,11.5,-,N/A,,Overcast,120,2014-05-18 13:35:00
8:55 AM,66.2,59.9,80,30.13,10.0,ESE,10.4,-,N/A,,Scattered Clouds,120,2014-05-18 13:55:00
9:15 AM,67.1,60.4,79,30.13,10.0,ESE,6.9,-,N/A,,Mostly Cloudy,120,2014-05-18 14:15:00
9:35 AM,67.6,60.8,79,30.14,10.0,East,9.2,-,N/A,,Overcast,100,2014-05-18 14:35:00
9:55 AM,68.5,61.3,78,30.14,10.0,ESE,6.9,-,N/A,,Overcast,120,2014-05-18 14:55:00
10:15 AM,69.8,61.7,75,30.14,10.0,ESE,8.1,-,N/A,,Overcast,120,2014-05-18 15:15:00
10:35 AM,70.7,62.6,75,30.13,10.0,SE,6.9,-,N/A,,Overcast,140,2014-05-18 15:35:00
10:55 AM,71.6,63.3,75,30.14,10.0,ESE,6.9,-,N/A,,Overcast,120,2014-05-18 15:55:00
11:15 AM,72.7,63.5,73,30.14,10.0,SSE,4.6,-,N/A,,Overcast,160,2014-05-18 16:15:00
11:35 AM,73.9,63.7,70,30.13,10.0,SSE,8.1,-,N/A,,Overcast,160,2014-05-18 16:35:00
11:55 AM,75.0,64.4,69,30.13,10.0,SSE,6.9,-,N/A,,Overcast,150,2014-05-18 16:55:00
12:15 PM,75.7,64.2,67,30.13,10.0,SE,5.8,-,N/A,,Overcast,130,2014-05-18 17:15:00
12:35 PM,77.0,64.2,65,30.12,10.0,SSE,4.6,-,N/A,,Mostly Cloudy,150,2014-05-18 17:35:00
12:55 PM,77.5,63.9,63,30.11,10.0,South,6.9,-,N/A,,Scattered Clouds,180,2014-05-18 17:55:00
1:15 PM,79.0,63.9,60,30.10,10.0,SSE,9.2,-,N/A,,Scattered Clouds,160,2014-05-18 18:15:00
1:35 PM,79.7,64.0,59,30.09,10.0,SSE,8.1,-,N/A,,Scattered Clouds,150,2014-05-18 18:35:00
1:55 PM,80.6,64.9,59,30.08,10.0,SSE,8.1,19.6,N/A,,Mostly Cloudy,160,2014-05-18 18:55:00
2:15 PM,80.6,64.8,58,30.07,5.0,SSE,9.2,16.1,N/A,,Haze,150,2014-05-18 19:15:00
2:35 PM,79.9,64.0,58,30.07,4.0,SSE,10.4,17.3,N/A,,Haze,150,2014-05-18 19:35:00
2:55 PM,82.2,65.3,56,30.06,10.0,SSE,8.1,-,N/A,,Mostly Cloudy,150,2014-05-18 19:55:00
3:15 PM,81.7,61.3,50,30.06,10.0,South,8.1,17.3,N/A,,Mostly Cloudy,190,2014-05-18 20:15:00
3:35 PM,82.0,62.2,51,30.06,10.0,SSE,10.4,17.3,N/A,,Mostly Cloudy,150,2014-05-18 20:35:00
3:55 PM,81.9,61.3,50,30.05,10.0,SSE,8.1,-,N/A,,Mostly Cloudy,150,2014-05-18 20:55:00
4:15 PM,84.2,62.6,48,30.05,10.0,SSE,9.2,-,N/A,,Mostly Cloudy,160,2014-05-18 21:15:00
4:35 PM,81.3,61.3,51,30.04,10.0,SSE,10.4,17.3,N/A,,Scattered Clouds,150,2014-05-18 21:35:00
4:55 PM,82.9,62.1,49,30.03,10.0,SSE,9.2,-,N/A,,Mostly Cloudy,150,2014-05-18 21:55:00
5:15 PM,83.3,63.0,50,30.03,10.0,SSE,12.7,19.6,N/A,,Scattered Clouds,150,2014-05-18 22:15:00
5:35 PM,83.3,62.4,49,30.03,10.0,SSE,13.8,17.3,N/A,,Clear,160,2014-05-18 22:35:00
5:55 PM,82.9,62.4,50,30.02,10.0,SSE,11.5,-,N/A,,Scattered Clouds,150,2014-05-18 22:55:00
6:15 PM,82.4,62.8,51,30.02,10.0,SSE,11.5,17.3,N/A,,Clear,150,2014-05-18 23:15:00
6:35 PM,82.0,63.0,52,30.01,10.0,SSE,10.4,-,N/A,,Clear,160,2014-05-18 23:35:00
6:55 PM,81.7,62.6,52,30.01,10.0,SSE,10.4,18.4,N/A,,Clear,160,2014-05-18 23:55:00
7:15 PM,81.1,62.8,53,30.01,10.0,SE,8.1,16.1,N/A,,Clear,140,2014-05-19 00:15:00
7:35 PM,79.9,63.1,56,30.01,10.0,SSE,9.2,-,N/A,,Clear,150,2014-05-19 00:35:00
7:55 PM,78.6,62.8,58,30.01,10.0,SSE,9.2,-,N/A,,Clear,150,2014-05-19 00:55:00
8:15 PM,77.9,62.8,60,30.01,10.0,SE,6.9,-,N/A,,Clear,140,2014-05-19 01:15:00
8:35 PM,76.6,62.8,62,30.01,10.0,SE,6.9,-,N/A,,Clear,130,2014-05-19 01:35:00
8:55 PM,75.6,63.1,65,30.00,10.0,SE,8.1,-,N/A,,Clear,130,2014-05-19 01:55:00
9:15 PM,75.6,63.1,65,30.00,10.0,SE,9.2,-,N/A,,Clear,130,2014-05-19 02:15:00
9:35 PM,74.8,63.1,67,30.01,10.0,SE,8.1,-,N/A,,Clear,130,2014-05-19 02:35:00
9:55 PM,74.3,63.3,68,30.01,10.0,SE,9.2,-,N/A,,Clear,130,2014-05-19 02:55:00
10:15 PM,72.7,63.7,73,30.02,10.0,ESE,6.9,-,N/A,,Clear,110,2014-05-19 03:15:00
10:35 PM,72.1,64.9,78,30.02,10.0,ESE,10.4,-,N/A,,Clear,120,2014-05-19 03:35:00
10:55 PM,72.0,65.7,80,30.02,10.0,ESE,10.4,16.1,N/A,,Clear,120,2014-05-19 03:55:00
11:15 PM,71.6,65.8,82,30.02,10.0,ESE,9.2,-,N/A,,Clear,120,2014-05-19 04:15:00
11:35 PM,71.1,65.7,83,30.02,10.0,ESE,8.1,-,N/A,,Clear,120,2014-05-19 04:35:00
11:55 PM,71.1,65.7,83,30.02,10.0,ESE,9.2,-,N/A,,Clear,120,2014-05-19 04:55:00